Time;durP1;ratioP1;P1;durP2;ratioP2;P2;SDS_P1;SDS_P2;PMS_P1;PMS_P2;Temp;Humidity;BMP_temperature;BMP_pressure;BME280_temperature;BME280_humidity;BME280_pressure;Samples;Min_cycle;Max_cycle;Signal;HPM_P1;HPM_P2
2022/11/02 00:00:46;;;;;;;7.03;1.07;;;14.30;92.00;;;;;;5017482;28;19909;-63
2022/11/02 00:03:11;;;;;;;10.38;1.48;;;14.20;92.10;;;;;;5014977;28;20022;-63
2022/11/02 00:05:37;;;;;;;11.13;2.13;;;14.30;92.10;;;;;;5010402;28;20508;-63
2022/11/02 00:08:03;;;;;;;10.20;1.88;;;14.30;92.10;;;;;;5017588;28;20029;-63
2022/11/02 00:10:31;;;;;;;10.35;2.85;;;14.30;92.10;;;;;;5017262;28;20044;-63
2022/11/02 00:12:57;;;;;;;8.27;2.03;;;14.40;92.20;;;;;;5015668;28;20076;-63
2022/11/02 00:15:26;;;;;;;6.18;1.20;;;14.30;92.40;;;;;;5017269;28;20432;-63
2022/11/02 00:17:57;;;;;;;7.53;1.92;;;14.30;92.70;;;;;;5034695;28;20028;-63
2022/11/02 00:20:22;;;;;;;13.15;1.65;;;14.30;92.90;;;;;;5013877;28;20029;-63
2022/11/02 00:22:51;;;;;;;13.27;1.40;;;14.30;93.10;;;;;;5011828;28;20026;-62
2022/11/02 00:25:21;;;;;;;6.70;1.13;;;14.30;93.50;;;;;;5014605;28;20133;-62
2022/11/02 00:27:46;;;;;;;7.85;1.10;;;14.20;94.30;;;;;;5011160;28;20072;-63
2022/11/02 00:30:12;;;;;;;11.82;1.10;;;14.10;94.90;;;;;;5017551;28;20061;-63
2022/11/02 00:32:38;;;;;;;7.22;1.10;;;14.00;95.20;;;;;;5010872;28;20037;-62
2022/11/02 00:35:04;;;;;;;4.82;1.85;;;14.00;95.80;;;;;;5011897;28;20025;-63
2022/11/02 00:37:30;;;;;;;9.82;1.30;;;13.90;96.40;;;;;;5013333;28;20022;-62
2022/11/02 00:39:55;;;;;;;6.13;1.08;;;13.70;97.50;;;;;;5016902;28;20024;-63
2022/11/02 00:42:21;;;;;;;8.88;2.17;;;13.50;98.10;;;;;;5013436;28;20469;-63
2022/11/02 00:44:46;;;;;;;9.52;1.92;;;13.40;99.20;;;;;;5010756;28;20053;-62
2022/11/02 00:47:12;;;;;;;8.20;1.17;;;13.40;99.20;;;;;;5016880;28;20385;-63
2022/11/02 00:49:38;;;;;;;8.75;1.20;;;13.40;99.20;;;;;;5011308;28;20079;-62
2022/11/02 00:52:03;;;;;;;5.63;1.02;;;13.50;99.00;;;;;;5012602;28;20026;-63
2022/11/02 00:54:29;;;;;;;6.75;0.93;;;13.50;99.00;;;;;;5036214;28;20875;-62
2022/11/02 00:56:55;;;;;;;4.22;0.80;;;13.50;99.00;;;;;;5013515;28;20145;-62
2022/11/02 00:59:20;;;;;;;9.55;1.17;;;13.50;99.30;;;;;;5016770;28;20516;-63
2022/11/02 01:01:48;;;;;;;6.90;1.52;;;13.60;99.50;;;;;;5019850;28;20590;-62
2022/11/02 01:04:14;;;;;;;8.35;1.13;;;13.60;99.60;;;;;;5015139;28;20022;-62
2022/11/02 01:06:41;;;;;;;9.65;1.10;;;13.60;99.90;;;;;;5018390;28;20029;-62
2022/11/02 01:09:07;;;;;;;6.72;1.13;;;13.50;99.90;;;;;;5018101;28;20448;-63
2022/11/02 01:11:33;;;;;;;5.50;1.42;;;13.50;99.90;;;;;;5032020;28;20500;-63
2022/11/02 01:13:59;;;;;;;6.13;0.88;;;13.50;99.90;;;;;;5012949;28;20026;-63
2022/11/02 01:16:24;;;;;;;5.18;0.90;;;13.50;99.90;;;;;;5019332;28;20410;-63
2022/11/02 01:18:54;;;;;;;7.90;1.48;;;13.50;99.90;;;;;;5016471;28;20482;-62
2022/11/02 01:21:21;;;;;;;6.60;1.30;;;13.50;99.90;;;;;;5014924;28;20108;-63
2022/11/02 01:23:46;;;;;;;7.20;1.45;;;13.50;99.90;;;;;;5027075;28;20486;-63
2022/11/02 01:26:12;;;;;;;9.75;1.02;;;13.50;99.90;;;;;;5016093;28;20104;-62
2022/11/02 01:28:38;;;;;;;11.13;1.75;;;13.50;99.50;;;;;;5021093;28;20073;-64
2022/11/02 01:31:05;;;;;;;9.25;1.55;;;13.50;99.10;;;;;;5027767;28;20076;-63
2022/11/02 01:33:31;;;;;;;7.93;1.10;;;13.60;99.00;;;;;;5013132;28;20017;-62
2022/11/02 01:35:57;;;;;;;7.00;1.00;;;13.60;98.40;;;;;;5016189;28;20032;-63
2022/11/02 01:38:23;;;;;;;5.68;1.00;;;13.70;98.10;;;;;;5024358;28;20056;-63
2022/11/02 01:40:49;;;;;;;9.52;0.80;;;13.70;97.90;;;;;;5015120;28;20057;-63
2022/11/02 01:43:26;;;;;;;5.00;0.90;;;13.70;97.80;;;;;;5013983;28;20064;-63
2022/11/02 01:45:59;;;;;;;5.72;0.98;;;13.70;97.40;;;;;;5016119;28;20050;-63
2022/11/02 01:48:31;;;;;;;8.15;1.15;;;13.80;97.20;;;;;;5018766;28;20025;-62
2022/11/02 01:51:00;;;;;;;7.22;1.45;;;13.70;97.10;;;;;;5010805;28;20109;-63
2022/11/02 01:53:26;;;;;;;6.82;1.20;;;13.70;97.00;;;;;;5015681;28;20021;-63
2022/11/02 01:55:52;;;;;;;6.85;0.75;;;13.70;96.90;;;;;;5017512;28;20018;-63
2022/11/02 01:58:18;;;;;;;3.20;0.60;;;13.70;97.20;;;;;;5015870;28;20484;-63
2022/11/02 02:00:44;;;;;;;4.10;0.73;;;13.70;96.40;;;;;;5031748;28;20104;-63
2022/11/02 02:03:16;;;;;;;1.95;0.60;;;13.60;95.40;;;;;;5013537;28;20056;-63
2022/11/02 02:05:57;;;;;;;2.58;0.40;;;13.50;94.90;;;;;;5023962;28;20112;-63
2022/11/02 02:08:25;;;;;;;2.28;0.40;;;13.50;94.70;;;;;;5017345;28;20057;-63
2022/11/02 02:10:54;;;;;;;3.33;0.47;;;13.40;94.70;;;;;;5021865;28;20022;-62
2022/11/02 02:13:20;;;;;;;4.35;0.50;;;13.30;94.60;;;;;;5016299;28;20029;-62
2022/11/02 02:15:57;;;;;;;2.17;0.50;;;13.30;94.80;;;;;;5025607;28;20038;-63
2022/11/02 02:18:37;;;;;;;1.90;0.40;;;13.30;94.90;;;;;;5019722;28;20466;-63
2022/11/02 02:21:44;;;;;;;3.75;0.50;;;13.20;94.90;;;;;;5014906;28;20026;-63
2022/11/02 02:24:16;;;;;;;3.30;0.40;;;13.10;94.70;;;;;;5016271;28;20033;-63
2022/11/02 02:27:01;;;;;;;2.88;0.30;;;13.00;94.90;;;;;;5027800;28;20548;-63
2022/11/02 02:29:44;;;;;;;1.95;0.63;;;13.00;95.10;;;;;;5020608;28;20022;-63
2022/11/02 02:32:17;;;;;;;8.38;1.35;;;12.90;95.20;;;;;;5012799;28;20551;-63
2022/11/02 02:34:52;;;;;;;3.10;0.60;;;12.80;95.40;;;;;;5027006;28;20041;-63
2022/11/02 02:37:27;;;;;;;4.90;0.70;;;12.80;95.60;;;;;;5021242;28;20025;-63
2022/11/02 02:40:10;;;;;;;7.18;0.85;;;12.80;95.80;;;;;;5018222;28;20500;-63
2022/11/02 02:42:51;;;;;;;4.72;0.80;;;12.80;95.90;;;;;;5014852;28;20508;-63
2022/11/02 02:45:23;;;;;;;5.18;1.10;;;12.80;96.10;;;;;;5013384;28;20050;-63
2022/11/02 02:47:57;;;;;;;9.52;1.15;;;12.90;96.30;;;;;;5013785;28;20022;-63
2022/11/02 02:50:49;;;;;;;6.25;1.77;;;12.90;96.30;;;;;;5012398;28;20099;-63
2022/11/02 02:53:18;;;;;;;9.63;0.90;;;12.90;96.20;;;;;;5012661;28;20084;-63
2022/11/02 02:55:46;;;;;;;6.60;0.87;;;12.90;96.30;;;;;;5019565;28;20511;-63
2022/11/02 02:58:20;;;;;;;8.73;1.17;;;12.90;96.40;;;;;;5009893;28;20433;-63
2022/11/02 03:00:45;;;;;;;5.97;0.75;;;12.90;96.30;;;;;;5013355;28;20076;-63
2022/11/02 03:03:17;;;;;;;6.65;1.60;;;12.90;96.30;;;;;;5020254;28;20455;-63
2022/11/02 03:05:43;;;;;;;7.88;0.98;;;12.90;96.10;;;;;;5018602;28;20042;-63
2022/11/02 03:08:15;;;;;;;7.18;0.90;;;12.80;96.10;;;;;;5013610;28;20034;-63
2022/11/02 03:10:47;;;;;;;6.05;1.00;;;12.90;95.90;;;;;;5014035;28;20076;-63
2022/11/02 03:13:38;;;;;;;8.20;1.00;;;12.90;96.00;;;;;;5025246;28;20025;-63
2022/11/02 03:16:18;;;;;;;5.00;0.88;;;12.90;95.80;;;;;;5012084;28;20030;-63
2022/11/02 03:19:03;;;;;;;6.35;1.05;;;12.80;95.80;;;;;;5017077;28;20398;-63
2022/11/02 03:21:42;;;;;;;6.60;1.20;;;12.90;95.90;;;;;;5012451;28;20030;-63
2022/11/02 03:24:25;;;;;;;9.18;0.93;;;12.90;95.80;;;;;;5012105;28;20037;-63
2022/11/02 03:26:56;;;;;;;7.15;1.00;;;12.90;95.70;;;;;;5024409;28;20498;-63
2022/11/02 03:29:35;;;;;;;8.63;1.23;;;12.90;95.60;;;;;;5014420;28;20533;-62
2022/11/02 03:32:09;;;;;;;8.73;2.67;;;12.90;95.60;;;;;;5018378;28;20120;-63
2022/11/02 03:34:47;;;;;;;5.55;1.00;;;12.80;95.70;;;;;;5017582;28;20821;-63
2022/11/02 03:37:27;;;;;;;7.95;1.08;;;12.80;95.70;;;;;;5010432;28;20046;-63
2022/11/02 03:39:57;;;;;;;7.00;1.67;;;12.80;95.70;;;;;;5013489;28;20022;-62
2022/11/02 03:42:26;;;;;;;8.18;1.55;;;12.90;95.90;;;;;;5019726;28;20034;-62
2022/11/02 03:45:18;;;;;;;7.80;1.00;;;12.80;96.10;;;;;;5012209;28;20113;-62
2022/11/02 03:47:48;;;;;;;9.13;1.33;;;12.70;96.20;;;;;;5016275;28;20513;-63
2022/11/02 03:50:19;;;;;;;5.43;1.20;;;12.70;96.30;;;;;;5012150;28;20096;-63
2022/11/02 03:52:47;;;;;;;9.07;1.35;;;12.70;96.10;;;;;;5015675;28;20505;-63
2022/11/02 03:55:16;;;;;;;6.28;1.10;;;12.70;96.00;;;;;;5021266;28;20497;-63
2022/11/02 03:57:46;;;;;;;8.77;1.13;;;12.70;96.00;;;;;;5016214;28;20441;-63
2022/11/02 04:00:17;;;;;;;6.85;1.38;;;12.70;96.00;;;;;;5011588;28;20032;-63
2022/11/02 04:02:49;;;;;;;10.70;1.48;;;12.70;95.80;;;;;;5013260;28;20045;-63
2022/11/02 04:05:16;;;;;;;7.07;1.65;;;12.70;95.60;;;;;;5011722;28;20032;-63
2022/11/02 04:10:29;;;;;;;8.15;1.00;;;12.80;95.40;;;;;;5014835;28;20164;-63
2022/11/02 04:15:39;;;;;;;8.15;1.10;;;12.80;95.30;;;;;;5014697;28;20524;-63
2022/11/02 04:20:52;;;;;;;10.85;1.38;;;12.80;95.00;;;;;;5014891;28;20029;-63
2022/11/02 04:26:03;;;;;;;11.68;1.77;;;12.90;94.90;;;;;;5012611;28;20071;-63
2022/11/02 04:28:28;;;;;;;10.02;1.25;;;12.80;94.80;;;;;;5016374;28;20414;-63
2022/11/02 04:30:56;;;;;;;11.30;1.38;;;12.90;94.80;;;;;;5013074;28;20038;-63
2022/11/02 04:33:34;;;;;;;13.50;1.40;;;12.90;94.70;;;;;;5018739;28;20401;-63
2022/11/02 04:36:05;;;;;;;9.30;1.45;;;12.90;94.70;;;;;;5018338;28;20481;-63
2022/11/02 04:38:41;;;;;;;10.25;1.33;;;12.90;94.80;;;;;;5024713;28;20036;-63
2022/11/02 04:43:54;;;;;;;12.60;2.13;;;12.80;94.90;;;;;;5015666;28;20029;-63
2022/11/02 04:46:20;;;;;;;10.55;1.98;;;12.80;94.90;;;;;;5016613;28;20038;-63
2022/11/02 04:48:46;;;;;;;10.57;1.65;;;12.90;95.00;;;;;;5028032;28;20025;-63
2022/11/02 04:51:12;;;;;;;8.23;1.17;;;12.80;95.00;;;;;;5019935;28;20552;-63
2022/11/02 04:53:37;;;;;;;13.38;1.48;;;12.90;94.90;;;;;;5018241;28;20486;-64
2022/11/02 04:56:03;;;;;;;6.32;1.27;;;12.90;95.00;;;;;;5017352;28;20025;-63
2022/11/02 04:58:29;;;;;;;10.50;1.58;;;12.90;95.10;;;;;;5014320;28;20494;-63
2022/11/02 05:00:54;;;;;;;5.90;1.00;;;12.90;95.10;;;;;;5021329;28;20030;-63
2022/11/02 05:03:20;;;;;;;12.52;2.00;;;12.80;95.10;;;;;;5014782;28;20048;-63
2022/11/02 05:05:45;;;;;;;9.57;1.52;;;12.80;95.20;;;;;;5016289;28;20045;-63
2022/11/02 05:08:11;;;;;;;12.13;1.30;;;12.80;95.30;;;;;;5019077;28;20033;-63
2022/11/02 05:10:36;;;;;;;8.00;1.30;;;12.80;95.20;;;;;;5015105;28;20488;-63
2022/11/02 05:13:02;;;;;;;7.65;1.23;;;12.90;95.60;;;;;;5026989;28;20112;-63
2022/11/02 05:15:28;;;;;;;12.40;1.42;;;12.80;95.20;;;;;;5017858;28;20440;-63
2022/11/02 05:17:53;;;;;;;7.97;1.50;;;12.80;95.20;;;;;;5016429;28;20025;-63
2022/11/02 05:20:19;;;;;;;10.75;1.70;;;12.90;95.30;;;;;;5014533;28;20486;-63
2022/11/02 05:22:44;;;;;;;9.30;1.30;;;12.90;95.30;;;;;;5037946;28;20044;-63
2022/11/02 05:25:11;;;;;;;13.57;2.85;;;12.90;95.40;;;;;;5014808;28;20438;-63
2022/11/02 05:27:37;;;;;;;14.35;2.10;;;12.90;95.30;;;;;;5025003;28;20045;-63
2022/11/02 05:30:04;;;;;;;12.43;1.35;;;12.90;95.30;;;;;;5019398;28;20497;-63
2022/11/02 05:32:30;;;;;;;8.75;1.50;;;12.90;95.30;;;;;;5019733;28;20053;-63
2022/11/02 05:34:56;;;;;;;13.18;2.15;;;12.90;95.30;;;;;;5012493;28;20057;-63
2022/11/02 05:37:22;;;;;;;8.95;1.63;;;12.90;95.30;;;;;;5020859;28;20073;-63
2022/11/02 05:39:47;;;;;;;8.32;1.33;;;12.90;95.40;;;;;;5038802;28;20030;-63
2022/11/02 05:42:13;;;;;;;9.55;1.55;;;12.90;95.40;;;;;;5017599;28;20028;-63
2022/11/02 05:44:38;;;;;;;12.63;1.65;;;12.80;95.40;;;;;;5020090;28;20038;-62
2022/11/02 05:47:04;;;;;;;9.30;1.40;;;12.80;95.30;;;;;;5015142;28;20041;-63
2022/11/02 05:49:30;;;;;;;9.32;2.40;;;12.80;95.20;;;;;;5019585;28;20030;-63
2022/11/02 05:51:55;;;;;;;12.45;1.95;;;12.80;95.20;;;;;;5011721;28;20053;-63
2022/11/02 05:54:21;;;;;;;11.05;1.73;;;12.80;95.30;;;;;;5017894;28;20037;-63
2022/11/02 05:56:47;;;;;;;9.85;1.38;;;12.80;95.30;;;;;;5017150;28;20029;-63
2022/11/02 05:59:12;;;;;;;12.27;1.85;;;12.80;95.40;;;;;;5018513;28;20374;-63
2022/11/02 06:01:38;;;;;;;8.25;1.80;;;12.70;95.40;;;;;;5019458;28;20478;-63
2022/11/02 06:04:04;;;;;;;8.35;1.60;;;12.70;95.50;;;;;;5014523;28;20037;-63
2022/11/02 06:06:30;;;;;;;8.40;1.15;;;12.70;95.50;;;;;;5023084;28;20504;-63
2022/11/02 06:08:55;;;;;;;14.63;1.63;;;12.60;95.60;;;;;;5024151;28;20789;-63
2022/11/02 06:11:21;;;;;;;11.35;1.77;;;12.60;95.50;;;;;;5034368;28;20030;-63
2022/11/02 06:13:49;;;;;;;7.07;1.20;;;12.60;95.60;;;;;;5034016;28;20124;-63
2022/11/02 06:16:16;;;;;;;11.85;1.75;;;12.60;95.60;;;;;;5033945;28;20025;-63
2022/11/02 06:18:41;;;;;;;13.70;2.00;;;12.60;95.60;;;;;;5033959;28;20024;-63
2022/11/02 06:21:07;;;;;;;12.05;1.50;;;12.50;95.60;;;;;;5033825;28;20397;-65
2022/11/02 06:23:33;;;;;;;12.43;1.52;;;12.50;95.60;;;;;;5028228;28;20013;-65
2022/11/02 06:25:59;;;;;;;6.72;1.02;;;12.50;95.70;;;;;;5034290;28;20624;-65
2022/11/02 06:28:26;;;;;;;16.27;1.83;;;12.50;95.60;;;;;;5028363;28;20116;-65
2022/11/02 06:30:54;;;;;;;6.22;1.08;;;12.50;95.70;;;;;;5033820;28;20032;-65
2022/11/02 06:33:20;;;;;;;8.88;1.40;;;12.50;95.80;;;;;;5031711;28;20076;-65
2022/11/02 06:35:48;;;;;;;10.52;1.45;;;12.50;95.70;;;;;;5033706;28;20432;-65
2022/11/02 06:38:14;;;;;;;9.52;1.77;;;12.40;95.70;;;;;;5031838;28;20040;-65
2022/11/02 06:40:40;;;;;;;9.75;1.20;;;12.40;95.80;;;;;;5022440;28;20021;-65
2022/11/02 06:43:05;;;;;;;9.77;1.42;;;12.30;95.80;;;;;;5033778;28;20363;-65
2022/11/02 06:45:31;;;;;;;11.45;2.35;;;12.30;95.80;;;;;;5033653;28;20046;-65
2022/11/02 06:47:56;;;;;;;8.52;1.60;;;12.30;96.20;;;;;;5018949;28;20046;-65
2022/11/02 06:50:23;;;;;;;5.90;1.08;;;12.30;95.90;;;;;;5029809;28;20029;-65
2022/11/02 06:52:49;;;;;;;11.55;1.83;;;12.20;96.00;;;;;;5032144;28;20017;-65
2022/11/02 06:55:16;;;;;;;10.02;1.63;;;12.20;96.10;;;;;;5033348;28;20463;-65
2022/11/02 06:57:42;;;;;;;11.50;1.38;;;12.20;96.20;;;;;;5033619;28;20504;-65
2022/11/02 07:00:16;;;;;;;9.82;1.55;;;12.20;96.20;;;;;;5027123;28;20034;-65
2022/11/02 07:02:44;;;;;;;6.13;1.00;;;12.10;96.30;;;;;;5021881;28;20025;-65
2022/11/02 07:05:10;;;;;;;6.05;0.93;;;12.10;96.30;;;;;;5042188;28;20104;-65
2022/11/02 07:07:36;;;;;;;5.47;1.23;;;12.10;96.40;;;;;;5033173;28;20083;-65
2022/11/02 07:10:03;;;;;;;13.27;1.40;;;12.10;96.50;;;;;;5047494;28;20062;-65
2022/11/02 07:12:31;;;;;;;7.43;1.30;;;12.10;96.50;;;;;;5028315;28;20052;-65
2022/11/02 07:14:57;;;;;;;10.85;1.20;;;12.10;96.50;;;;;;5028017;28;20026;-65
2022/11/02 07:17:22;;;;;;;11.35;1.50;;;12.10;96.50;;;;;;5027103;28;20439;-65
2022/11/02 07:19:47;;;;;;;10.43;2.08;;;12.10;96.60;;;;;;5031476;28;20033;-65
2022/11/02 07:22:13;;;;;;;8.73;1.23;;;12.10;96.60;;;;;;5030814;28;20029;-65
2022/11/02 07:24:38;;;;;;;9.48;1.38;;;12.10;96.60;;;;;;5029580;28;20423;-65
2022/11/02 07:27:04;;;;;;;11.27;1.35;;;12.10;96.60;;;;;;5029038;28;20104;-65
2022/11/02 07:29:29;;;;;;;11.77;1.08;;;12.10;96.70;;;;;;5031765;28;20030;-65
2022/11/02 07:31:55;;;;;;;8.05;2.05;;;12.10;96.60;;;;;;5029851;28;20393;-65
2022/11/02 07:34:20;;;;;;;11.77;1.75;;;12.10;96.70;;;;;;5032684;28;20059;-65
2022/11/02 07:36:46;;;;;;;9.73;1.83;;;12.10;96.70;;;;;;5032492;28;20029;-65
2022/11/02 07:39:11;;;;;;;7.70;1.40;;;12.00;96.60;;;;;;5031784;28;20036;-65
2022/11/02 07:41:37;;;;;;;8.32;1.60;;;12.00;96.70;;;;;;5019406;28;20024;-65
2022/11/02 07:44:07;;;;;;;5.03;1.10;;;12.00;96.70;;;;;;5032618;28;20052;-65
2022/11/02 07:46:33;;;;;;;9.18;1.48;;;12.10;96.80;;;;;;5031479;28;20091;-65
2022/11/02 07:48:58;;;;;;;6.90;1.20;;;12.10;96.80;;;;;;5032665;28;20017;-65
2022/11/02 07:51:24;;;;;;;8.35;1.67;;;12.10;96.70;;;;;;5031353;28;20025;-65
2022/11/02 07:53:49;;;;;;;7.75;1.42;;;12.10;96.70;;;;;;5027129;28;20022;-65
2022/11/02 07:56:15;;;;;;;9.10;1.67;;;12.10;96.70;;;;;;5030860;28;20473;-65
2022/11/02 07:58:40;;;;;;;5.75;1.10;;;12.20;96.70;;;;;;5031284;28;20242;-65
2022/11/02 08:01:06;;;;;;;9.15;1.08;;;12.20;96.60;;;;;;5019433;28;20018;-65
2022/11/02 08:03:31;;;;;;;9.30;0.98;;;12.20;96.50;;;;;;5025001;28;20014;-65
2022/11/02 08:06:01;;;;;;;10.98;1.42;;;12.20;96.40;;;;;;5027841;28;20017;-65
2022/11/02 08:08:27;;;;;;;;;;;12.30;96.40;;;;;;5018909;28;20025;-65
2022/11/02 08:10:52;;;;;;;12.27;1.63;;;12.20;96.20;;;;;;5012148;28;20277;-65
2022/11/02 08:13:20;;;;;;;6.82;1.15;;;12.20;96.40;;;;;;5018349;28;20101;-65
2022/11/02 08:15:50;;;;;;;14.10;1.50;;;12.20;96.20;;;;;;5029613;28;20022;-65
2022/11/02 08:18:18;;;;;;;8.57;1.33;;;12.30;96.20;;;;;;5018355;28;20120;-65
2022/11/02 08:20:45;;;;;;;11.48;1.27;;;12.30;96.00;;;;;;5031963;28;20036;-65
2022/11/02 08:23:11;;;;;;;16.58;1.70;;;12.40;95.90;;;;;;5025029;28;20029;-65
2022/11/02 08:25:37;;;;;;;6.55;1.10;;;12.40;95.90;;;;;;5029669;28;20396;-65
2022/11/02 08:28:10;;;;;;;9.98;1.30;;;12.40;95.90;;;;;;5026466;28;20033;-65
2022/11/02 08:30:37;;;;;;;11.38;1.40;;;12.40;95.90;;;;;;5027076;28;20033;-65
2022/11/02 08:33:14;;;;;;;12.27;1.45;;;12.40;95.60;;;;;;5029206;28;20440;-65
2022/11/02 08:35:41;;;;;;;7.57;1.38;;;12.50;95.60;;;;;;5018041;28;20036;-65
2022/11/02 08:38:08;;;;;;;8.65;1.27;;;12.50;95.90;;;;;;5018788;28;20482;-65
2022/11/02 08:40:35;;;;;;;9.00;1.83;;;12.50;95.90;;;;;;5022665;28;20022;-65
2022/11/02 08:43:11;;;;;;;8.68;1.48;;;12.50;95.80;;;;;;5014091;28;20037;-65
2022/11/02 08:45:39;;;;;;;13.68;1.70;;;12.60;95.80;;;;;;5031885;28;20052;-65
2022/11/02 08:48:05;;;;;;;8.95;1.77;;;12.60;95.90;;;;;;5018207;28;20055;-65
2022/11/02 08:50:31;;;;;;;6.07;1.15;;;12.60;95.80;;;;;;5021639;28;20030;-65
2022/11/02 08:52:57;;;;;;;11.38;1.67;;;12.70;95.90;;;;;;5015893;28;20095;-63
2022/11/02 08:55:22;;;;;;;6.82;1.40;;;12.70;95.90;;;;;;5032576;28;20035;-63
2022/11/02 08:57:53;;;;;;;9.93;1.20;;;12.80;95.90;;;;;;5031868;28;20026;-63
2022/11/02 09:00:21;;;;;;;11.57;1.58;;;12.80;95.80;;;;;;5031834;28;20100;-63
2022/11/02 09:03:00;;;;;;;8.77;1.15;;;12.90;95.80;;;;;;5031372;28;20030;-63
2022/11/02 09:05:27;;;;;;;12.20;1.37;;;12.90;95.70;;;;;;5031359;28;20021;-63
2022/11/02 09:07:58;;;;;;;11.30;1.55;;;12.90;95.80;;;;;;5018408;28;20018;-63
2022/11/02 09:10:24;;;;;;;9.93;1.50;;;13.00;95.70;;;;;;5012480;28;20054;-63
2022/11/02 09:12:50;;;;;;;7.80;1.33;;;13.00;95.10;;;;;;5012051;28;20045;-63
2022/11/02 09:15:15;;;;;;;6.75;1.63;;;13.00;95.10;;;;;;5020062;28;20373;-63
2022/11/02 09:17:41;;;;;;;10.30;1.77;;;13.10;95.10;;;;;;5032361;28;20080;-63
2022/11/02 09:20:07;;;;;;;10.10;1.65;;;13.10;95.40;;;;;;5025565;28;20052;-63
2022/11/02 09:22:32;;;;;;;9.73;1.58;;;13.20;95.10;;;;;;5033853;28;20033;-63
2022/11/02 09:24:58;;;;;;;7.35;1.52;;;13.20;95.10;;;;;;5033872;28;20504;-65
2022/11/02 09:27:23;;;;;;;8.90;1.88;;;13.20;94.90;;;;;;5034644;28;20026;-65
2022/11/02 09:29:49;;;;;;;7.07;1.35;;;13.30;95.00;;;;;;5022217;28;20033;-65
2022/11/02 09:32:14;;;;;;;8.63;1.17;;;13.30;95.00;;;;;;5024501;28;20366;-65
2022/11/02 09:34:40;;;;;;;8.57;1.50;;;13.40;94.70;;;;;;5027816;28;20046;-65
2022/11/02 09:37:05;;;;;;;10.13;1.40;;;13.40;94.60;;;;;;5028668;28;20084;-65
2022/11/02 09:39:31;;;;;;;5.30;0.82;;;13.50;94.50;;;;;;5028225;28;20049;-65
2022/11/02 09:42:12;;;;;;;11.55;1.90;;;13.60;94.40;;;;;;5022032;28;20033;-65
2022/11/02 09:44:48;;;;;;;11.07;1.30;;;13.80;93.70;;;;;;5019037;28;20461;-65
2022/11/02 09:47:15;;;;;;;7.10;1.25;;;14.00;93.60;;;;;;5015942;28;20041;-65
2022/11/02 09:49:42;;;;;;;9.43;1.50;;;14.10;93.30;;;;;;5019180;28;20025;-65
2022/11/02 09:52:23;;;;;;;4.78;1.27;;;14.30;93.20;;;;;;5024652;28;20026;-65
2022/11/02 09:54:52;;;;;;;6.18;1.30;;;14.80;92.60;;;;;;5015508;28;20057;-65
2022/11/02 09:57:28;;;;;;;;;;;16.30;91.20;;;;;;5015445;28;20030;-65
2022/11/02 09:59:54;;;;;;;4.90;0.98;;;17.30;88.00;;;;;;5014581;28;19927;-65
2022/11/02 10:02:42;;;;;;;8.75;1.52;;;17.70;85.90;;;;;;5027500;28;20028;-65
2022/11/02 10:05:23;;;;;;;7.05;1.13;;;17.90;83.10;;;;;;5018355;28;20071;-65
2022/11/02 10:08:33;;;;;;;4.72;1.27;;;18.00;80.50;;;;;;5021736;28;20033;-65
2022/11/02 10:11:20;;;;;;;5.85;1.55;;;17.40;80.00;;;;;;5034654;28;20022;-63
2022/11/02 10:14:23;;;;;;;8.05;1.42;;;17.80;81.50;;;;;;5034338;28;20076;-63
2022/11/02 10:16:54;;;;;;;6.88;1.08;;;19.30;76.20;;;;;;5026169;28;20044;-63
2022/11/02 10:19:20;;;;;;;6.75;1.20;;;20.20;72.20;;;;;;5033081;28;20548;-63
2022/11/02 10:21:48;;;;;;;6.68;1.45;;;20.50;71.40;;;;;;5032104;28;20022;-63
2022/11/02 10:24:24;;;;;;;9.02;1.40;;;22.30;68.00;;;;;;5034037;28;20028;-63
2022/11/02 10:26:54;;;;;;;8.35;1.70;;;24.70;63.40;;;;;;5020859;28;20025;-63
2022/11/02 10:29:34;;;;;;;7.00;1.40;;;25.60;55.40;;;;;;5033007;28;20032;-64
2022/11/02 10:32:01;;;;;;;5.30;1.35;;;26.10;53.40;;;;;;5021964;28;20032;-63
2022/11/02 10:34:27;;;;;;;4.18;1.13;;;26.20;52.70;;;;;;5033972;28;20083;-64
2022/11/02 10:37:23;;;;;;;7.53;1.60;;;26.40;51.30;;;;;;5018918;28;20021;-63
2022/11/02 10:40:06;;;;;;;5.40;1.30;;;26.40;50.40;;;;;;5048866;28;20022;-64
2022/11/02 10:42:56;;;;;;;8.32;1.67;;;24.70;51.70;;;;;;5033575;28;20025;-63
2022/11/02 10:45:53;;;;;;;6.80;1.38;;;23.10;53.90;;;;;;5021998;28;20115;-63
2022/11/02 10:49:06;;;;;;;11.85;1.45;;;22.10;56.50;;;;;;5010943;28;20026;-63
2022/11/02 10:51:32;;;;;;;7.72;1.55;;;21.30;58.10;;;;;;4991600;28;20498;-63
2022/11/02 10:53:58;;;;;;;9.80;2.33;;;21.30;59.60;;;;;;4975104;28;20550;-63
2022/11/02 10:56:29;;;;;;;7.93;2.05;;;21.70;57.80;;;;;;5011756;28;20485;-63
2022/11/02 10:59:09;;;;;;;5.90;1.52;;;21.80;57.90;;;;;;5030334;28;20108;-63
2022/11/02 11:01:34;;;;;;;;;;;23.00;56.60;;;;;;5029264;28;20045;-64
2022/11/02 11:04:01;;;;;;;6.43;1.10;;;23.70;54.00;;;;;;5027885;28;19905;-63
2022/11/02 11:06:42;;;;;;;3.47;1.52;;;24.70;53.10;;;;;;5032966;28;20049;-63
2022/11/02 11:09:20;;;;;;;6.10;1.90;;;26.10;51.70;;;;;;5033733;28;20116;-64
2022/11/02 11:12:05;;;;;;;4.88;1.67;;;27.70;50.00;;;;;;5027333;28;20033;-64
2022/11/02 11:14:46;;;;;;;8.30;1.70;;;28.00;47.90;;;;;;5025382;28;20432;-63
2022/11/02 11:17:22;;;;;;;8.25;1.88;;;27.50;47.00;;;;;;5024145;28;20060;-63
2022/11/02 11:19:50;;;;;;;4.95;1.50;;;27.30;46.70;;;;;;5031345;28;20498;-64
2022/11/02 11:22:27;;;;;;;6.40;1.80;;;27.30;46.70;;;;;;5031626;28;20029;-64
2022/11/02 11:25:12;;;;;;;5.13;1.55;;;28.20;46.10;;;;;;5041533;28;20022;-63
2022/11/02 11:27:45;;;;;;;6.93;1.70;;;29.20;44.60;;;;;;5025245;28;20033;-64
2022/11/02 11:30:28;;;;;;;7.68;1.98;;;30.50;44.00;;;;;;5031299;28;20477;-64
2022/11/02 11:32:56;;;;;;;4.38;1.38;;;30.80;41.60;;;;;;5028418;28;20152;-64
2022/11/02 11:35:23;;;;;;;6.28;1.90;;;30.90;41.80;;;;;;5028856;28;20106;-64
2022/11/02 11:38:07;;;;;;;5.05;1.45;;;31.10;41.20;;;;;;5026075;28;20022;-64
2022/11/02 11:40:38;;;;;;;3.97;1.20;;;32.00;40.80;;;;;;5020644;28;20025;-64
2022/11/02 11:43:08;;;;;;;6.93;1.65;;;33.10;39.70;;;;;;5030415;28;20036;-64
2022/11/02 11:45:34;;;;;;;5.50;1.77;;;33.60;38.60;;;;;;5031698;28;20087;-64
2022/11/02 11:48:06;;;;;;;7.20;1.85;;;34.20;37.90;;;;;;5026107;28;20025;-64
2022/11/02 11:50:32;;;;;;;5.32;1.65;;;34.20;37.30;;;;;;5032771;28;20026;-64
2022/11/02 11:53:12;;;;;;;5.25;1.40;;;33.80;36.60;;;;;;5025993;28;20143;-64
2022/11/02 11:55:47;;;;;;;6.13;1.60;;;33.50;35.70;;;;;;5026105;28;20367;-64
2022/11/02 11:58:21;;;;;;;7.47;1.92;;;32.70;36.50;;;;;;5027548;28;20515;-64
2022/11/02 12:01:25;;;;;;;5.95;1.30;;;31.80;36.80;;;;;;5030641;28;20029;-64
2022/11/02 12:03:56;;;;;;;5.10;1.48;;;31.60;38.20;;;;;;4991445;28;20106;-64
2022/11/02 12:06:33;;;;;;;4.75;1.77;;;32.80;38.00;;;;;;4973125;28;20046;-64
2022/11/02 12:09:14;;;;;;;3.50;1.33;;;33.80;36.80;;;;;;5019366;28;20108;-64
2022/11/02 12:11:51;;;;;;;6.50;1.40;;;34.10;35.80;;;;;;5032449;28;20021;-64
2022/11/02 12:14:38;;;;;;;6.60;1.58;;;34.60;35.50;;;;;;5019590;28;20025;-64
2022/11/02 12:17:25;;;;;;;6.63;1.67;;;34.60;34.50;;;;;;5020504;28;20056;-64
2022/11/02 12:20:12;;;;;;;3.00;1.58;;;33.70;34.40;;;;;;5031642;28;20151;-64
2022/11/02 12:22:55;;;;;;;5.57;1.58;;;33.20;35.00;;;;;;5022189;28;20086;-64
2022/11/02 12:25:43;;;;;;;4.47;1.33;;;32.80;34.70;;;;;;5025006;28;20021;-64
2022/11/02 12:28:38;;;;;;;4.97;1.35;;;31.70;35.90;;;;;;5025794;28;20029;-64
2022/11/02 12:31:21;;;;;;;9.30;1.90;;;30.60;36.50;;;;;;5023535;28;20508;-64
2022/11/02 12:34:06;;;;;;;4.38;1.30;;;29.90;36.90;;;;;;5031794;28;20029;-64
2022/11/02 12:36:37;;;;;;;7.28;1.65;;;29.10;37.60;;;;;;5023873;28;20057;-64
2022/11/02 12:39:07;;;;;;;5.70;1.35;;;28.80;38.50;;;;;;5028158;28;20068;-64
2022/11/02 12:41:56;;;;;;;5.95;2.00;;;29.70;38.50;;;;;;5028240;28;20075;-64
2022/11/02 12:44:31;;;;;;;4.32;1.33;;;29.90;37.20;;;;;;5030752;28;20041;-63
2022/11/02 12:47:19;;;;;;;4.22;1.45;;;29.90;37.30;;;;;;5023371;28;20409;-64
2022/11/02 12:49:49;;;;;;;4.93;1.23;;;30.60;37.10;;;;;;5025843;28;20053;-64
2022/11/02 12:52:42;;;;;;;4.72;1.20;;;31.60;36.60;;;;;;5026482;28;20025;-64
2022/11/02 12:55:16;;;;;;;5.13;1.38;;;31.40;34.70;;;;;;5031627;28;20021;-64
2022/11/02 12:57:43;;;;;;;3.30;1.10;;;30.80;35.80;;;;;;5034749;28;20112;-64
2022/11/02 13:00:21;;;;;;;4.20;1.50;;;30.60;35.50;;;;;;5035226;28;20021;-64
2022/11/02 13:03:00;;;;;;;6.35;1.40;;;30.40;36.00;;;;;;5034819;28;20026;-64
2022/11/02 13:05:33;;;;;;;4.53;1.25;;;30.70;36.20;;;;;;5031916;28;20699;-64
2022/11/02 13:08:19;;;;;;;3.90;1.30;;;31.20;35.50;;;;;;5033810;28;20025;-64
2022/11/02 13:10:55;;;;;;;6.25;1.73;;;31.20;35.60;;;;;;5035027;28;20025;-64
2022/11/02 13:13:35;;;;;;;6.45;1.77;;;30.80;35.10;;;;;;5033687;28;20029;-64
2022/11/02 13:16:02;;;;;;;6.90;1.92;;;29.50;36.10;;;;;;5033699;28;20054;-64
2022/11/02 13:18:40;;;;;;;5.53;2.15;;;29.20;37.20;;;;;;5033208;28;20027;-64